createdAt,value
2023-05-04T00:00:10.386Z,2.50
2023-05-04T00:02:37.097Z,2.92
2023-05-04T00:05:06.104Z,2.78
2023-05-04T00:07:32.733Z,2.50
2023-05-04T00:09:59.799Z,2.85
2023-05-04T00:12:26.240Z,2.40
2023-05-04T00:14:52.867Z,1.83
2023-05-04T00:17:19.709Z,2.00
2023-05-04T00:19:49.545Z,2.30
2023-05-04T00:22:17.312Z,1.90
2023-05-04T00:24:49.639Z,1.55
2023-05-04T00:27:18.529Z,1.92
2023-05-04T00:29:45.112Z,2.65
2023-05-04T00:32:11.548Z,2.10
2023-05-04T00:34:37.984Z,2.00
2023-05-04T00:37:04.703Z,2.30
2023-05-04T00:39:31.300Z,2.15
2023-05-04T00:41:57.777Z,2.35
2023-05-04T00:44:24.398Z,1.92
2023-05-04T00:46:52.967Z,2.33
2023-05-04T00:49:23.035Z,1.90
2023-05-04T00:51:54.985Z,2.00
2023-05-04T00:54:21.767Z,1.60
2023-05-04T00:56:50.055Z,1.73
2023-05-04T00:59:16.611Z,1.80
2023-05-04T01:01:43.105Z,2.08
2023-05-04T01:04:10.076Z,1.75
2023-05-04T01:06:58.318Z,1.73
2023-05-04T01:09:43.022Z,1.88
2023-05-04T01:12:22.467Z,1.88
2023-05-04T01:14:51.530Z,1.58
2023-05-04T01:17:17.993Z,1.85
2023-05-04T01:19:44.522Z,1.80
2023-05-04T01:22:11.006Z,1.92
2023-05-04T01:24:38.056Z,2.00
2023-05-04T01:27:24.794Z,1.80
2023-05-04T01:30:26.207Z,1.83
2023-05-04T01:32:53.515Z,2.05
2023-05-04T01:35:23.162Z,1.77
2023-05-04T01:37:51.814Z,1.75
2023-05-04T01:40:18.293Z,1.90
2023-05-04T01:42:44.820Z,1.67
2023-05-04T01:45:11.852Z,1.90
2023-05-04T01:47:38.458Z,1.98
2023-05-04T01:50:05.884Z,1.83
2023-05-04T01:52:32.661Z,1.52
2023-05-04T01:54:59.238Z,1.80
2023-05-04T01:57:25.827Z,1.60
2023-05-04T01:59:55.284Z,1.75
2023-05-04T02:02:25.841Z,1.58
2023-05-04T02:04:55.877Z,1.50
2023-05-04T02:07:25.815Z,1.60
2023-05-04T02:09:54.935Z,1.40
2023-05-04T02:12:23.790Z,2.00
2023-05-04T02:14:50.221Z,1.80
2023-05-04T02:17:16.690Z,1.33
2023-05-04T02:19:43.222Z,1.85
2023-05-04T02:22:09.966Z,2.25
2023-05-04T02:24:36.462Z,1.90
2023-05-04T02:27:03.392Z,1.63
2023-05-04T02:29:29.904Z,1.67
2023-05-04T02:31:56.563Z,2.05
2023-05-04T02:34:25.898Z,1.70
2023-05-04T02:36:52.579Z,1.55
2023-05-04T02:39:19.587Z,1.38
2023-05-04T02:41:46.061Z,1.33
2023-05-04T02:44:12.526Z,1.60
2023-05-04T02:46:38.968Z,1.58
2023-05-04T02:49:05.505Z,1.60
2023-05-04T02:51:32.004Z,1.58
2023-05-04T02:53:58.457Z,1.10
2023-05-04T02:56:27.814Z,1.48
2023-05-04T02:58:56.627Z,1.42
2023-05-04T03:01:23.110Z,1.60
2023-05-04T03:03:49.663Z,1.20
2023-05-04T03:06:16.174Z,1.67
2023-05-04T03:08:42.634Z,1.23
2023-05-04T03:11:09.117Z,1.50
2023-05-04T03:13:35.770Z,1.20
2023-05-04T03:16:02.438Z,1.30
2023-05-04T03:18:29.022Z,1.10
2023-05-04T03:20:59.845Z,1.30
2023-05-04T03:23:29.397Z,1.20
2023-05-04T03:25:59.477Z,1.00
2023-05-04T03:28:29.104Z,1.67
2023-05-04T03:30:57.837Z,1.45
2023-05-04T03:33:24.419Z,1.10
2023-05-04T03:35:50.913Z,1.10
2023-05-04T03:38:17.403Z,0.98
2023-05-04T03:40:43.877Z,1.20
2023-05-04T03:43:10.381Z,1.20
2023-05-04T03:45:36.860Z,1.17
2023-05-04T03:48:03.981Z,1.33
2023-05-04T03:50:30.517Z,1.10
2023-05-04T03:53:00.261Z,0.90
2023-05-04T03:55:29.025Z,1.15
2023-05-04T03:57:55.639Z,1.02
2023-05-04T04:00:22.312Z,1.20
2023-05-04T04:02:48.906Z,1.30
2023-05-04T04:05:15.790Z,1.40
2023-05-04T04:07:42.210Z,1.40
2023-05-04T04:10:09.509Z,1.00
2023-05-04T04:12:36.401Z,1.55
2023-05-04T04:15:03.129Z,1.40
2023-05-04T04:17:32.846Z,1.73
2023-05-04T04:20:02.469Z,1.60
2023-05-04T04:22:33.477Z,1.27
2023-05-04T04:25:03.431Z,1.42
2023-05-04T04:27:32.899Z,1.88
2023-05-04T04:30:04.349Z,1.33
2023-05-04T04:32:34.153Z,1.40
2023-05-04T04:35:04.551Z,0.95
2023-05-04T04:37:34.847Z,1.27
2023-05-04T04:40:04.526Z,1.25
2023-05-04T04:42:33.806Z,1.40
2023-05-04T04:45:05.584Z,1.02
2023-05-04T04:47:33.008Z,1.00
2023-05-04T04:50:02.284Z,0.93
2023-05-04T04:52:29.095Z,1.20
2023-05-04T04:54:55.602Z,1.00
2023-05-04T04:57:22.105Z,1.15
2023-05-04T04:59:48.884Z,1.20
2023-05-04T05:02:15.697Z,1.20
2023-05-04T05:04:42.163Z,0.93
2023-05-04T05:07:08.955Z,1.17
2023-05-04T05:09:35.712Z,1.10
2023-05-04T05:12:05.935Z,1.10
2023-05-04T05:14:32.949Z,0.90
2023-05-04T05:17:01.867Z,0.85
2023-05-04T05:19:28.358Z,0.95
2023-05-04T05:21:55.228Z,1.00
2023-05-04T05:24:21.674Z,1.08
2023-05-04T05:26:48.321Z,1.10
2023-05-04T05:29:15.006Z,1.15
2023-05-04T05:31:41.590Z,1.10
2023-05-04T05:34:08.074Z,1.20
2023-05-04T05:36:34.616Z,0.88
2023-05-04T05:39:04.946Z,1.00
2023-05-04T05:41:34.580Z,1.00
2023-05-04T05:44:04.248Z,0.98
2023-05-04T05:46:34.581Z,1.00
2023-05-04T05:49:07.353Z,1.00
2023-05-04T05:51:33.922Z,1.23
2023-05-04T05:54:04.553Z,0.98
2023-05-04T05:56:33.217Z,0.95
2023-05-04T05:59:02.996Z,0.95
2023-05-04T06:01:32.443Z,0.95
2023-05-04T06:04:02.746Z,1.00
2023-05-04T06:06:32.751Z,1.08
2023-05-04T06:09:02.971Z,0.93
2023-05-04T06:11:32.206Z,0.82
2023-05-04T06:13:59.045Z,0.93
2023-05-04T06:16:25.842Z,1.35
2023-05-04T06:18:52.649Z,0.77
2023-05-04T06:21:19.560Z,0.80
2023-05-04T06:23:47.166Z,0.80
2023-05-04T06:26:13.966Z,0.90
2023-05-04T06:28:40.799Z,0.90
2023-05-04T06:31:07.755Z,0.93
2023-05-04T06:33:34.728Z,0.80
2023-05-04T06:36:05.174Z,0.80
2023-05-04T06:38:34.727Z,0.88
2023-05-04T06:41:04.694Z,1.42
2023-05-04T06:43:35.469Z,1.10
2023-05-04T06:46:04.322Z,0.88
2023-05-04T06:48:34.004Z,0.70
2023-05-04T06:51:02.315Z,0.85
2023-05-04T06:53:29.928Z,0.75
2023-05-04T06:55:56.451Z,1.20
2023-05-04T06:58:24.653Z,0.80
2023-05-04T07:00:51.324Z,0.80
2023-05-04T07:03:17.970Z,3.00
2023-05-04T07:05:48.686Z,4.05
2023-05-04T07:08:20.145Z,2.92
2023-05-04T07:10:46.822Z,6.80
2023-05-04T07:13:14.315Z,7.07
2023-05-04T07:15:40.972Z,5.65
2023-05-04T07:18:07.540Z,3.45
2023-05-04T07:20:37.153Z,3.67
2023-05-04T07:23:04.952Z,3.30
2023-05-04T07:25:35.083Z,3.70
2023-05-04T07:28:05.227Z,3.47
2023-05-04T07:30:34.848Z,3.90
2023-05-04T07:33:05.657Z,3.80
2023-05-04T07:35:35.960Z,3.97
2023-05-04T07:38:15.807Z,4.18
2023-05-04T07:40:42.289Z,3.30
2023-05-04T07:43:08.758Z,3.38
2023-05-04T07:45:35.197Z,3.60
2023-05-04T07:48:04.383Z,3.20
2023-05-04T07:50:30.886Z,3.50
2023-05-04T07:52:57.434Z,3.85
2023-05-04T07:55:25.007Z,3.80
2023-05-04T07:57:51.445Z,3.50
2023-05-04T08:00:23.627Z,3.25
2023-05-04T08:02:50.350Z,3.88
2023-05-04T08:05:16.935Z,3.70
2023-05-04T08:07:43.739Z,4.05
2023-05-04T08:10:10.508Z,3.70
2023-05-04T08:12:36.977Z,3.38
2023-05-04T08:15:07.655Z,4.03
2023-05-04T08:17:39.528Z,3.28
2023-05-04T08:20:10.144Z,3.17
2023-05-04T08:22:36.752Z,3.40
2023-05-04T08:25:07.242Z,3.40
2023-05-04T08:27:36.983Z,3.70
2023-05-04T08:30:08.479Z,3.50
2023-05-04T08:32:35.506Z,3.95
2023-05-04T08:35:04.665Z,3.90
2023-05-04T08:37:38.939Z,3.97
2023-05-04T08:40:08.516Z,4.00
2023-05-04T08:42:35.310Z,3.85
2023-05-04T08:45:04.291Z,3.60
2023-05-04T08:47:30.958Z,3.97
2023-05-04T08:49:57.556Z,4.20
2023-05-04T08:52:25.455Z,3.40
2023-05-04T08:54:56.988Z,3.58
2023-05-04T08:57:24.421Z,3.50
2023-05-04T08:59:53.514Z,3.70
2023-05-04T09:02:23.949Z,3.72
2023-05-04T09:04:51.564Z,3.80
2023-05-04T09:07:19.183Z,3.50
2023-05-04T09:09:47.172Z,3.45
2023-05-04T09:12:14.087Z,3.72
2023-05-04T09:14:41.666Z,3.38
2023-05-04T09:17:17.732Z,3.60
2023-05-04T09:19:44.617Z,4.20
2023-05-04T09:22:18.350Z,4.10
2023-05-04T09:24:46.398Z,4.00
2023-05-04T09:27:15.934Z,4.05
2023-05-04T09:29:43.019Z,3.80
2023-05-04T09:32:16.180Z,3.60
2023-05-04T09:34:53.193Z,4.03
2023-05-04T09:37:23.052Z,3.75
2023-05-04T09:39:58.653Z,3.47
2023-05-04T09:42:26.698Z,4.47
2023-05-04T09:45:05.938Z,4.05
2023-05-04T09:47:37.710Z,4.40
2023-05-04T09:50:25.466Z,4.07
2023-05-04T09:52:53.436Z,4.03
2023-05-04T09:55:20.878Z,3.70
2023-05-04T09:57:50.461Z,3.80
2023-05-04T10:00:18.403Z,3.53
2023-05-04T10:02:46.513Z,3.92
2023-05-04T10:05:17.671Z,3.67
2023-05-04T10:07:45.061Z,3.70
2023-05-04T10:10:15.466Z,3.60
2023-05-04T10:12:44.462Z,3.20
2023-05-04T10:15:12.382Z,3.45
2023-05-04T10:18:00.495Z,3.53
2023-05-04T10:20:27.588Z,3.10
2023-05-04T10:23:23.844Z,3.53
2023-05-04T10:26:43.099Z,3.20
2023-05-04T10:29:24.099Z,2.92
2023-05-04T10:31:51.757Z,3.35
2023-05-04T10:34:37.482Z,3.70
2023-05-04T10:37:17.202Z,3.47
2023-05-04T10:39:53.589Z,2.90
2023-05-04T10:42:20.956Z,2.88
2023-05-04T10:44:52.907Z,3.40
2023-05-04T10:47:35.871Z,3.50
2023-05-04T10:50:11.254Z,3.10
2023-05-04T10:52:48.742Z,3.85
2023-05-04T10:55:16.118Z,3.60
2023-05-04T10:57:54.787Z,3.40
2023-05-04T11:00:22.845Z,3.53
2023-05-04T11:02:50.148Z,3.15
2023-05-04T11:05:20.616Z,3.22
2023-05-04T11:07:50.756Z,3.30
2023-05-04T11:10:23.238Z,3.28
2023-05-04T11:12:50.054Z,3.75
2023-05-04T11:15:16.708Z,3.85
2023-05-04T11:17:51.897Z,4.15
2023-05-04T11:20:21.772Z,3.30
2023-05-04T11:22:49.537Z,3.83
2023-05-04T11:25:17.085Z,3.58
2023-05-04T11:27:44.338Z,3.83
2023-05-04T11:30:11.258Z,3.58
2023-05-04T11:32:43.748Z,3.42
2023-05-04T11:35:16.302Z,4.10
2023-05-04T11:37:44.221Z,3.65
2023-05-04T11:40:16.630Z,3.72
2023-05-04T11:42:43.803Z,3.70
2023-05-04T11:45:20.402Z,3.40
2023-05-04T11:47:48.439Z,3.90
2023-05-04T11:50:17.025Z,3.30
2023-05-04T11:52:44.470Z,3.20
2023-05-04T11:55:12.318Z,3.90
2023-05-04T11:57:39.021Z,3.53
2023-05-04T12:00:10.671Z,3.50
2023-05-04T12:02:40.526Z,3.60
2023-05-04T12:05:14.000Z,3.70
2023-05-04T12:07:43.805Z,3.72
2023-05-04T12:10:10.646Z,4.10
2023-05-04T12:12:40.177Z,3.63
2023-05-04T12:15:11.334Z,3.80
2023-05-04T12:17:43.080Z,3.60
2023-05-04T12:20:10.332Z,4.05
2023-05-04T12:22:40.589Z,4.07
2023-05-04T12:25:11.250Z,3.92
2023-05-04T12:27:41.822Z,3.90
2023-05-04T12:30:09.407Z,3.65
2023-05-04T12:32:38.440Z,4.07
2023-05-04T12:35:09.435Z,3.83
2023-05-04T12:37:39.665Z,3.80
2023-05-04T12:40:25.110Z,3.70
2023-05-04T12:42:55.035Z,3.90
2023-05-04T12:45:22.748Z,3.90
2023-05-04T12:47:49.570Z,3.63
2023-05-04T12:50:16.391Z,3.85
2023-05-04T12:52:42.932Z,3.65
2023-05-04T12:55:12.111Z,4.00
2023-05-04T12:57:39.631Z,3.80
2023-05-04T13:00:10.275Z,3.90
2023-05-04T13:02:40.734Z,3.95
2023-05-04T13:05:10.078Z,4.28
2023-05-04T13:07:39.521Z,4.03
2023-05-04T13:10:07.127Z,3.80
2023-05-04T13:12:34.102Z,3.67
2023-05-04T13:15:01.083Z,4.10
2023-05-04T13:17:29.541Z,3.92
2023-05-04T13:19:56.161Z,3.60
2023-05-04T13:22:23.007Z,4.15
2023-05-04T13:24:49.511Z,4.18
2023-05-04T13:27:16.403Z,3.58
2023-05-04T13:29:42.885Z,4.07
2023-05-04T13:32:09.446Z,3.65
2023-05-04T13:34:37.844Z,3.63
2023-05-04T13:37:04.407Z,4.15
2023-05-04T13:39:39.243Z,3.70
2023-05-04T13:42:07.844Z,4.05
2023-05-04T13:44:35.046Z,3.97
2023-05-04T13:47:03.496Z,3.70
2023-05-04T13:49:30.623Z,3.50
2023-05-04T13:51:57.691Z,3.40
2023-05-04T13:54:24.346Z,3.60
2023-05-04T13:56:51.172Z,3.50
2023-05-04T13:59:18.247Z,3.30
2023-05-04T14:01:44.748Z,3.40
2023-05-04T14:04:12.362Z,3.95
2023-05-04T14:06:41.646Z,3.45
2023-05-04T14:09:11.052Z,4.03
2023-05-04T14:11:41.058Z,3.40
2023-05-04T14:14:09.613Z,4.00
2023-05-04T14:16:37.474Z,3.85
2023-05-04T14:19:04.390Z,3.63
2023-05-04T14:21:30.946Z,3.88
2023-05-04T14:23:57.522Z,4.15
2023-05-04T14:38:33.029Z,3.72
2023-05-04T14:41:03.053Z,3.97
2023-05-04T14:43:30.199Z,3.50
2023-05-04T14:45:58.580Z,3.80
2023-05-04T14:48:26.818Z,3.70
2023-05-04T14:50:58.289Z,3.60
2023-05-04T14:53:25.113Z,4.13
2023-05-04T14:55:51.791Z,3.83
2023-05-04T14:58:18.951Z,3.90
2023-05-04T15:00:46.162Z,3.67
2023-05-04T15:03:12.978Z,3.75
2023-05-04T15:05:41.967Z,3.85
2023-05-04T15:08:08.680Z,3.80
2023-05-04T15:10:35.525Z,3.60
2023-05-04T15:13:03.985Z,3.90
2023-05-04T15:15:42.238Z,3.40
2023-05-04T15:18:14.260Z,3.60
2023-05-04T15:20:44.195Z,3.53
2023-05-04T15:23:13.980Z,3.78
2023-05-04T15:25:42.351Z,3.40
2023-05-04T15:28:11.918Z,3.60
2023-05-04T15:30:40.050Z,3.95
2023-05-04T15:33:07.384Z,3.88
2023-05-04T15:35:36.196Z,3.90
2023-05-04T15:38:08.116Z,3.63
2023-05-04T15:40:34.739Z,4.00
2023-05-04T15:43:01.206Z,4.05
2023-05-04T15:45:27.711Z,3.85
2023-05-04T15:47:54.302Z,3.78
2023-05-04T15:50:22.418Z,4.40
2023-05-04T15:52:48.912Z,4.13
2023-05-04T15:55:26.038Z,4.57
2023-05-04T15:57:53.944Z,4.10
2023-05-04T16:00:21.253Z,3.60
2023-05-04T16:02:48.130Z,3.60
2023-05-04T16:05:17.635Z,3.78
2023-05-04T16:07:47.661Z,3.80
2023-05-04T16:10:17.614Z,4.18
2023-05-04T16:12:47.297Z,4.35
2023-05-04T16:15:13.948Z,4.00
2023-05-04T16:17:40.722Z,4.43
2023-05-04T16:20:08.497Z,4.28
2023-05-04T16:22:35.401Z,4.30
2023-05-04T16:25:02.154Z,4.10
2023-05-04T16:27:28.826Z,3.95
2023-05-04T16:29:56.231Z,4.25
2023-05-04T16:32:22.834Z,4.40
2023-05-04T16:34:49.411Z,4.53
2023-05-04T16:40:19.132Z,4.60
2023-05-04T16:42:46.310Z,4.70
2023-05-04T16:45:21.559Z,3.67
2023-05-04T16:50:38.978Z,4.40
2023-05-04T16:53:06.554Z,4.43
2023-05-04T16:55:33.331Z,5.00
2023-05-04T16:58:03.220Z,5.28
2023-05-04T17:00:30.107Z,4.57
2023-05-04T17:02:57.073Z,4.50
2023-05-04T17:05:23.703Z,4.43
2023-05-04T17:07:50.282Z,4.60
2023-05-04T17:10:18.460Z,4.57
2023-05-04T17:12:48.211Z,4.40
2023-05-04T17:15:17.653Z,4.38
2023-05-04T17:17:47.228Z,4.53
2023-05-04T17:20:18.016Z,4.90
2023-05-04T17:22:48.413Z,4.88
2023-05-04T17:25:29.977Z,4.43
2023-05-04T17:27:58.695Z,4.75
2023-05-04T17:30:28.360Z,4.40
2023-05-04T17:32:57.374Z,4.55
2023-05-04T17:35:32.041Z,3.90
2023-05-04T17:37:59.195Z,5.07
2023-05-04T17:40:30.839Z,4.32
2023-05-04T17:42:57.553Z,4.75
2023-05-04T17:45:27.024Z,4.30
2023-05-04T17:47:53.903Z,4.45
2023-05-04T17:50:21.628Z,4.43
2023-05-04T17:52:59.397Z,5.07
2023-05-04T17:55:26.151Z,4.70
2023-05-04T17:57:57.629Z,4.45
2023-05-04T18:00:25.051Z,4.55
2023-05-04T18:02:57.480Z,4.45
2023-05-04T18:21:23.484Z,4.10
2023-05-04T18:23:50.089Z,4.00
2023-05-04T18:26:22.393Z,3.65
2023-05-04T18:28:49.697Z,3.78
2023-05-04T18:31:16.381Z,4.38
2023-05-04T18:33:45.175Z,3.97
2023-05-04T18:36:14.495Z,3.90
2023-05-04T18:38:43.556Z,4.20
2023-05-04T18:41:12.004Z,3.90
2023-05-04T18:43:38.595Z,3.80
2023-05-04T18:46:08.622Z,4.00
2023-05-04T18:48:35.317Z,4.03
2023-05-04T18:51:03.817Z,3.97
2023-05-04T18:53:30.719Z,3.60
2023-05-04T18:56:02.605Z,3.63
2023-05-04T18:58:29.672Z,4.03
2023-05-04T19:00:56.294Z,4.20
2023-05-04T19:03:23.054Z,4.32
2023-05-04T19:05:50.473Z,4.13
2023-05-04T19:08:20.930Z,3.83
2023-05-04T19:10:48.229Z,3.80
2023-05-04T19:13:18.313Z,4.03
2023-05-04T19:15:48.674Z,3.80
2023-05-04T19:18:18.890Z,4.05
2023-05-04T19:20:48.491Z,4.07
2023-05-04T19:23:21.940Z,4.10
2023-05-04T19:25:48.657Z,3.85
2023-05-04T19:30:55.200Z,3.95
2023-05-04T19:33:24.630Z,4.70
2023-05-04T19:35:58.983Z,3.75
2023-05-04T19:38:26.107Z,4.25
2023-05-04T19:40:52.824Z,4.25
2023-05-04T19:43:19.777Z,4.53
2023-05-04T19:45:52.308Z,3.90
2023-05-04T19:48:21.534Z,3.53
2023-05-04T19:50:49.372Z,3.85
2023-05-04T19:53:20.453Z,3.83
2023-05-04T19:58:33.548Z,3.72
2023-05-04T20:01:00.399Z,3.70
2023-05-04T20:03:27.191Z,3.53
2023-05-04T20:05:54.045Z,3.88
2023-05-04T20:08:20.634Z,3.67
2023-05-04T20:10:47.282Z,4.18
2023-05-04T20:13:16.669Z,4.13
2023-05-04T20:15:43.399Z,3.70
2023-05-04T20:18:13.313Z,4.10
2023-05-04T20:20:41.068Z,3.90
2023-05-04T20:23:07.653Z,3.80
2023-05-04T20:25:34.190Z,3.60
2023-05-04T20:28:00.837Z,3.78
2023-05-04T20:30:28.687Z,3.80
2023-05-04T20:32:55.331Z,3.90
2023-05-04T20:35:22.040Z,3.78
2023-05-04T20:37:49.020Z,3.95
2023-05-04T20:40:18.743Z,3.65
2023-05-04T20:42:48.802Z,3.70
2023-05-04T20:45:19.346Z,4.00
2023-05-04T20:47:49.466Z,3.60
2023-05-04T20:50:20.450Z,4.00
2023-05-04T20:52:50.798Z,3.60
2023-05-04T20:55:20.787Z,4.10
2023-05-04T20:57:50.275Z,4.28
2023-05-04T21:00:18.392Z,4.05
2023-05-04T21:02:47.464Z,3.70
2023-05-04T21:05:14.063Z,4.00
2023-05-04T21:07:40.780Z,4.35
2023-05-04T21:10:08.992Z,4.30
2023-05-04T21:12:35.950Z,4.13
2023-05-04T21:15:02.652Z,4.45
2023-05-04T21:17:29.235Z,4.05
2023-05-04T21:19:56.032Z,4.43
2023-05-04T21:23:20.479Z,4.35
2023-05-04T21:26:00.379Z,4.78
2023-05-04T21:28:27.002Z,4.78
2023-05-04T21:30:53.640Z,4.20
2023-05-04T21:33:20.314Z,4.53
2023-05-04T21:35:48.170Z,4.47
2023-05-04T21:38:14.823Z,4.20
2023-05-04T21:40:41.567Z,5.40
2023-05-04T21:43:12.249Z,5.60
2023-05-04T21:45:39.385Z,4.70
2023-05-04T21:48:06.609Z,4.95
2023-05-04T21:50:33.686Z,4.70
2023-05-04T21:53:00.332Z,4.53
2023-05-04T21:55:28.459Z,4.57
2023-05-04T21:57:55.011Z,4.70
2023-05-04T22:00:22.376Z,4.22
2023-05-04T22:02:55.078Z,4.28
2023-05-04T22:05:22.602Z,3.72
2023-05-04T22:07:52.348Z,4.00
2023-05-04T22:10:22.639Z,3.85
2023-05-04T22:12:53.100Z,4.05
2023-05-04T22:15:22.121Z,4.32
2023-05-04T22:17:51.009Z,4.28
2023-05-04T22:20:17.699Z,3.90
2023-05-04T22:22:44.394Z,4.03
2023-05-04T22:25:11.116Z,3.90
2023-05-04T22:27:37.699Z,3.72
2023-05-04T22:30:04.733Z,3.60
2023-05-04T22:32:31.335Z,4.03
2023-05-04T22:34:57.944Z,3.83
2023-05-04T22:37:24.489Z,3.45
2023-05-04T22:39:53.905Z,3.45
2023-05-04T22:42:22.545Z,3.40
2023-05-04T22:44:49.086Z,3.33
2023-05-04T22:47:15.894Z,3.13
2023-05-04T22:49:42.861Z,3.83
2023-05-04T22:52:09.458Z,3.80
2023-05-04T22:54:36.339Z,3.33
2023-05-04T22:57:03.157Z,3.45
2023-05-04T22:59:31.593Z,3.92
2023-05-04T23:01:58.420Z,3.35
2023-05-04T23:04:25.020Z,3.08
2023-05-04T23:06:56.081Z,3.75
2023-05-04T23:09:26.115Z,3.40
2023-05-04T23:11:55.709Z,3.22
2023-05-04T23:14:25.145Z,3.88
2023-05-04T23:16:54.657Z,3.30
2023-05-04T23:19:23.457Z,3.33
2023-05-04T23:21:50.022Z,3.47
2023-05-04T23:24:16.579Z,3.65
2023-05-04T23:26:43.115Z,3.67
2023-05-04T23:29:12.605Z,3.50
2023-05-04T23:31:39.274Z,3.78
2023-05-04T23:34:05.977Z,4.00
2023-05-04T23:36:32.654Z,4.10
2023-05-04T23:38:59.573Z,3.72
2023-05-04T23:41:26.191Z,4.32
2023-05-04T23:43:55.008Z,4.10
2023-05-04T23:46:21.528Z,3.80
2023-05-04T23:48:48.092Z,3.95
2023-05-04T23:51:14.683Z,3.72
2023-05-04T23:53:41.563Z,3.70
2023-05-04T23:56:08.336Z,4.00
2023-05-04T23:58:35.222Z,4.45
